createdAt,value
2023-04-20T00:01:16.787Z,1999.90
2023-04-20T00:03:44.885Z,1999.90
2023-04-20T00:06:14.052Z,1999.90
2023-04-20T00:08:41.999Z,1231.23
2023-04-20T00:11:09.998Z,1387.63
2023-04-20T00:13:37.940Z,1999.90
2023-04-20T00:16:07.867Z,459.90
2023-04-20T00:18:35.830Z,1999.90
2023-04-20T00:21:04.031Z,850.23
2023-04-20T00:23:31.999Z,1135.60
2023-04-20T00:26:00.049Z,1139.27
2023-04-20T00:28:28.005Z,195.83
2023-04-20T00:30:56.123Z,1999.90
2023-04-20T00:33:25.594Z,1999.90
2023-04-20T00:35:53.999Z,885.10
2023-04-20T00:38:21.927Z,595.03
2023-04-20T00:40:53.220Z,854.83
2023-04-20T00:43:21.993Z,127.47
2023-04-20T00:45:52.068Z,508.93
2023-04-20T00:48:20.990Z,1761.97
2023-04-20T00:50:51.059Z,101.90
2023-04-20T00:53:20.354Z,92.27
2023-04-20T00:55:48.912Z,356.93
2023-04-20T00:58:16.866Z,393.07
2023-04-20T01:00:44.918Z,299.93
2023-04-20T01:03:13.114Z,673.23
2023-04-20T01:05:41.407Z,412.17
2023-04-20T01:08:11.066Z,1309.60
2023-04-20T01:10:39.003Z,1003.87
2023-04-20T01:13:07.014Z,1988.20
2023-04-20T01:15:35.341Z,1999.90
2023-04-20T01:18:03.947Z,1999.90
2023-04-20T01:20:33.193Z,674.37
2023-04-20T01:23:02.732Z,1718.20
2023-04-20T01:25:30.892Z,1447.60
2023-04-20T01:27:58.891Z,525.97
2023-04-20T01:30:26.844Z,1999.90
2023-04-20T01:32:54.838Z,150.13
2023-04-20T01:35:22.810Z,1121.67
2023-04-20T01:37:50.838Z,1999.90
2023-04-20T01:40:20.142Z,248.27
2023-04-20T01:42:48.105Z,544.10
2023-04-20T01:45:16.392Z,394.87
2023-04-20T01:47:44.379Z,1362.60
2023-04-20T01:50:12.551Z,1903.53
2023-04-20T01:52:40.551Z,754.30
2023-04-20T01:55:10.000Z,237.13
2023-04-20T01:57:39.415Z,153.13
2023-04-20T02:00:09.987Z,1257.40
2023-04-20T02:02:38.044Z,533.90
2023-04-20T02:05:06.549Z,77.60
2023-04-20T02:07:34.589Z,215.03
2023-04-20T02:10:02.523Z,77.00
2023-04-20T02:12:30.922Z,369.83
2023-04-20T02:15:00.234Z,59.97
2023-04-20T02:17:28.237Z,69.60
2023-04-20T02:19:56.187Z,415.20
2023-04-20T02:22:24.141Z,399.93
2023-04-20T02:24:52.081Z,73.23
2023-04-20T02:27:20.080Z,346.43
2023-04-20T02:29:48.025Z,417.03
2023-04-20T02:32:17.351Z,79.07
2023-04-20T02:34:45.342Z,205.87
2023-04-20T02:37:14.163Z,46.57
2023-04-20T02:39:42.099Z,112.33
2023-04-20T02:42:10.104Z,46.70
2023-04-20T02:44:38.052Z,99.37
2023-04-20T02:47:06.532Z,64.37
2023-04-20T02:49:36.169Z,46.10
2023-04-20T02:52:04.178Z,118.07
2023-04-20T02:54:32.140Z,67.33
2023-04-20T02:57:00.125Z,115.00
2023-04-20T02:59:28.085Z,310.43
2023-04-20T03:01:56.078Z,556.13
2023-04-20T03:04:25.956Z,51.80
2023-04-20T03:06:55.877Z,54.20
2023-04-20T03:09:23.926Z,1347.70
2023-04-20T03:11:51.928Z,131.10
2023-04-20T03:14:19.901Z,201.57
2023-04-20T03:16:47.897Z,63.83
2023-04-20T03:19:17.049Z,135.10
2023-04-20T03:21:46.748Z,70.53
2023-04-20T03:24:16.551Z,101.83
2023-04-20T03:26:44.516Z,172.30
2023-04-20T03:29:12.463Z,940.30
2023-04-20T03:31:40.479Z,944.73
2023-04-20T03:34:08.483Z,456.20
2023-04-20T03:36:36.684Z,57.27
2023-04-20T03:39:05.706Z,98.97
2023-04-20T03:41:35.026Z,68.73
2023-04-20T03:44:03.031Z,621.40
2023-04-20T03:46:30.988Z,1106.97
2023-04-20T03:48:58.952Z,1664.13
2023-04-20T03:51:27.568Z,31.50
2023-04-20T03:53:55.830Z,36.27
2023-04-20T03:56:23.822Z,149.40
2023-04-20T03:58:53.171Z,73.53
2023-04-20T04:01:21.172Z,62.70
2023-04-20T04:03:49.347Z,1999.90
2023-04-20T04:06:17.392Z,71.43
2023-04-20T04:08:45.355Z,249.60
2023-04-20T04:11:13.319Z,84.03
2023-04-20T04:13:41.324Z,130.43
2023-04-20T04:16:10.700Z,357.13
2023-04-20T04:18:39.120Z,59.87
2023-04-20T04:21:10.234Z,199.03
2023-04-20T04:23:38.327Z,978.13
2023-04-20T04:26:06.459Z,208.93
2023-04-20T04:28:34.436Z,134.03
2023-04-20T04:31:06.136Z,162.30
2023-04-20T04:33:35.790Z,57.93
2023-04-20T04:36:04.058Z,157.27
2023-04-20T04:38:34.339Z,89.23
2023-04-20T04:41:02.637Z,264.17
2023-04-20T04:43:31.009Z,40.10
2023-04-20T04:45:59.413Z,73.97
2023-04-20T04:48:27.911Z,31.07
2023-04-20T04:50:57.201Z,1999.90
2023-04-20T04:53:25.179Z,605.83
2023-04-20T04:55:53.185Z,1583.60
2023-04-20T04:58:21.396Z,481.50
2023-04-20T05:00:49.346Z,76.97
2023-04-20T05:03:17.513Z,130.60
2023-04-20T05:05:45.638Z,1999.90
2023-04-20T05:08:14.954Z,1617.70
2023-04-20T05:10:42.894Z,1818.93
2023-04-20T05:13:10.917Z,70.90
2023-04-20T05:15:38.901Z,1999.90
2023-04-20T05:18:07.193Z,444.60
2023-04-20T05:20:35.257Z,1999.90
2023-04-20T05:23:04.408Z,434.27
2023-04-20T05:25:33.850Z,528.63
2023-04-20T05:28:01.822Z,286.03
2023-04-20T05:30:29.786Z,319.50
2023-04-20T05:32:57.806Z,113.53
2023-04-20T05:35:25.764Z,1329.97
2023-04-20T05:37:53.761Z,363.27
2023-04-20T05:40:21.768Z,1382.40
2023-04-20T05:42:51.094Z,1095.33
2023-04-20T05:45:19.106Z,774.93
2023-04-20T05:47:54.427Z,909.87
2023-04-20T05:50:22.977Z,1999.90
2023-04-20T05:52:51.139Z,1999.90
2023-04-20T05:55:22.057Z,1374.10
2023-04-20T05:57:52.586Z,1999.90
2023-04-20T06:00:23.081Z,1999.90
2023-04-20T06:02:52.620Z,1999.90
2023-04-20T06:05:20.973Z,1532.50
2023-04-20T06:07:48.975Z,560.27
2023-04-20T06:10:17.005Z,1999.90
2023-04-20T06:12:45.000Z,1999.90
2023-04-20T06:15:14.757Z,1999.90
2023-04-20T06:17:42.723Z,1853.40
2023-04-20T06:20:11.967Z,1242.10
2023-04-20T06:22:44.333Z,1999.90
2023-04-20T06:25:12.551Z,894.70
2023-04-20T06:27:40.539Z,1999.90
2023-04-20T06:30:10.024Z,240.70
2023-04-20T06:32:39.573Z,1999.90
2023-04-20T06:35:08.919Z,1999.90
2023-04-20T06:37:37.165Z,235.60
2023-04-20T06:40:08.138Z,199.47
2023-04-20T06:42:36.994Z,1999.90
2023-04-20T06:45:05.754Z,300.77
2023-04-20T06:47:34.077Z,191.97
2023-04-20T06:50:07.411Z,1999.90
2023-04-20T06:52:35.482Z,1501.47
2023-04-20T06:55:03.598Z,1936.40
2023-04-20T06:57:31.545Z,1999.90
2023-04-20T06:59:59.908Z,351.37
2023-04-20T07:02:28.612Z,1999.90
2023-04-20T07:05:03.192Z,531.40
2023-04-20T07:07:31.168Z,236.40
2023-04-20T07:09:59.307Z,1819.20
2023-04-20T07:12:27.283Z,1999.90
2023-04-20T07:14:55.709Z,1972.63
2023-04-20T07:17:23.726Z,1999.90
2023-04-20T07:19:52.540Z,1967.10
2023-04-20T07:22:21.890Z,1899.47
2023-04-20T07:24:49.860Z,1999.90
2023-04-20T07:27:17.867Z,56.40
2023-04-20T07:29:45.917Z,517.43
2023-04-20T07:32:14.641Z,1999.90
2023-04-20T07:34:42.754Z,1364.93
2023-04-20T07:37:10.710Z,1395.70
2023-04-20T07:39:40.055Z,1999.90
2023-04-20T07:42:08.033Z,1999.90
2023-04-20T07:44:36.718Z,1999.90
2023-04-20T07:47:05.030Z,1999.90
2023-04-20T07:49:33.038Z,1999.90
2023-04-20T07:52:15.199Z,1999.90
2023-04-20T07:54:45.750Z,1728.80
2023-04-20T07:57:13.817Z,1999.90
2023-04-20T07:59:41.845Z,971.63
2023-04-20T08:02:09.925Z,1999.90
2023-04-20T08:04:38.917Z,1975.70
2023-04-20T08:07:07.123Z,1999.90
2023-04-20T08:09:35.109Z,1999.90
2023-04-20T08:12:04.830Z,1999.90
2023-04-20T08:14:33.692Z,1999.90
2023-04-20T08:17:01.712Z,1999.90
2023-04-20T08:19:29.699Z,1999.90
2023-04-20T08:21:57.743Z,1999.90
2023-04-20T08:24:25.739Z,1999.90
2023-04-20T08:26:53.712Z,1999.90
2023-04-20T08:29:23.202Z,1999.90
2023-04-20T08:31:51.906Z,1999.90
2023-04-20T08:34:20.178Z,1999.90
2023-04-20T08:36:48.229Z,1999.90
2023-04-20T08:39:24.338Z,1999.90
2023-04-20T08:41:53.934Z,1999.90
2023-04-20T08:44:23.489Z,1999.90
2023-04-20T08:46:52.292Z,1999.90
2023-04-20T08:49:21.151Z,1999.90
2023-04-20T08:51:49.817Z,1999.90
2023-04-20T08:54:18.124Z,1999.90
2023-04-20T08:56:48.136Z,1999.90
2023-04-20T08:59:16.922Z,1999.90
2023-04-20T09:01:46.646Z,724.43
2023-04-20T09:04:22.656Z,1999.90
2023-04-20T09:06:52.625Z,1999.90
2023-04-20T09:09:22.480Z,1999.90
2023-04-20T09:12:02.134Z,1999.90
2023-04-20T09:14:30.336Z,1999.90
2023-04-20T09:17:02.123Z,1835.47
2023-04-20T09:19:30.911Z,1999.90
2023-04-20T09:22:01.173Z,1999.90
2023-04-20T09:24:33.661Z,1999.90
2023-04-20T09:27:02.534Z,1999.90
2023-04-20T09:29:30.855Z,1999.90
2023-04-20T09:32:00.206Z,1999.90
2023-04-20T09:34:28.448Z,1425.23
2023-04-20T09:36:57.364Z,992.90
2023-04-20T09:39:26.894Z,1999.90
2023-04-20T09:41:54.889Z,1999.90
2023-04-20T09:44:22.892Z,1999.90
2023-04-20T09:46:50.828Z,1999.90
2023-04-20T09:49:21.479Z,1999.90
2023-04-20T09:51:50.594Z,1999.90
2023-04-20T09:54:18.737Z,1999.90
2023-04-20T09:56:47.116Z,1999.90
2023-04-20T09:59:15.712Z,1999.90
2023-04-20T10:01:43.785Z,1999.90
2023-04-20T10:04:14.505Z,1999.90
2023-04-20T10:06:54.715Z,1999.90
2023-04-20T10:09:24.492Z,1999.90
2023-04-20T10:11:54.545Z,1796.60
2023-04-20T10:14:24.594Z,1999.90
2023-04-20T10:17:01.454Z,1999.90
2023-04-20T10:19:39.660Z,1999.90
2023-04-20T10:22:09.697Z,742.20
2023-04-20T10:24:39.049Z,1999.90
2023-04-20T10:27:17.905Z,1999.90
2023-04-20T10:29:47.205Z,1999.90
2023-04-20T10:32:24.147Z,1999.90
2023-04-20T10:35:03.502Z,1999.90
2023-04-20T10:37:32.823Z,1999.90
2023-04-20T10:40:01.456Z,1999.90
2023-04-20T10:42:30.365Z,1999.90
2023-04-20T10:44:58.333Z,1999.90
2023-04-20T10:47:30.709Z,1999.90
2023-04-20T10:50:07.899Z,1999.90
2023-04-20T10:52:38.634Z,473.03
2023-04-20T10:55:08.449Z,1988.03
2023-04-20T10:57:37.536Z,1999.90
2023-04-20T11:00:16.660Z,1999.90
2023-04-20T11:02:50.256Z,1999.90
2023-04-20T11:05:19.304Z,1999.90
2023-04-20T11:07:54.781Z,1668.03
2023-04-20T11:10:24.712Z,1473.93
2023-04-20T11:12:53.287Z,1999.90
2023-04-20T11:15:31.673Z,1999.90
2023-04-20T11:18:08.274Z,1999.90
2023-04-20T11:20:37.064Z,1999.90
2023-04-20T11:23:06.787Z,1999.90
2023-04-20T11:25:35.382Z,1999.90
2023-04-20T11:28:08.586Z,1999.90
2023-04-20T11:30:41.249Z,1988.17
2023-04-20T11:33:09.987Z,1999.90
2023-04-20T11:35:38.887Z,1999.90
2023-04-20T11:38:08.562Z,1999.90
2023-04-20T11:40:37.078Z,1999.90
2023-04-20T11:43:05.551Z,1999.90
2023-04-20T11:45:36.225Z,1999.90
2023-04-20T11:48:05.499Z,1999.90
2023-04-20T11:50:33.549Z,1999.90
2023-04-20T11:53:02.267Z,1999.90
2023-04-20T11:55:31.833Z,1999.90
2023-04-20T11:57:59.759Z,1411.37
2023-04-20T12:00:28.003Z,1999.90
2023-04-20T12:02:56.128Z,1999.90
2023-04-20T12:05:24.387Z,1999.90
2023-04-20T12:07:52.475Z,1999.90
2023-04-20T12:10:20.507Z,1999.90
2023-04-20T12:12:50.006Z,1999.90
2023-04-20T12:15:18.188Z,1999.90
2023-04-20T12:17:46.177Z,1999.90
2023-04-20T12:20:15.159Z,1999.90
2023-04-20T12:22:43.098Z,1999.90
2023-04-20T12:25:11.316Z,1999.90
2023-04-20T12:27:39.283Z,1999.90
2023-04-20T12:30:10.244Z,1999.90
2023-04-20T12:32:38.268Z,1999.90
2023-04-20T12:35:08.291Z,1999.90
2023-04-20T12:37:36.827Z,1999.90
2023-04-20T12:40:06.402Z,1999.90
2023-04-20T12:42:34.385Z,1999.90
2023-04-20T12:45:02.364Z,1999.90
2023-04-20T12:47:31.798Z,1999.90
2023-04-20T12:49:59.815Z,1999.90
2023-04-20T12:52:28.093Z,1999.90
2023-04-20T12:54:56.135Z,1999.90
2023-04-20T12:57:24.121Z,1999.90
2023-04-20T12:59:52.155Z,1999.90
2023-04-20T13:02:20.306Z,1999.90
2023-04-20T13:04:49.758Z,1999.90
2023-04-20T13:07:17.691Z,1999.90
2023-04-20T13:09:45.746Z,1999.90
2023-04-20T13:12:14.341Z,1999.90
2023-04-20T13:14:42.781Z,1999.90
2023-04-20T13:17:10.748Z,1999.90
2023-04-20T13:19:38.739Z,1999.90
2023-04-20T13:22:08.194Z,1999.90
2023-04-20T13:24:36.378Z,1999.90
2023-04-20T13:27:06.309Z,1999.90
2023-04-20T13:29:34.334Z,1999.90
2023-04-20T13:32:02.374Z,1999.90
2023-04-20T13:34:30.462Z,1999.90
2023-04-20T13:36:58.951Z,1999.90
2023-04-20T13:39:28.306Z,1999.90
2023-04-20T13:41:56.807Z,1999.90
2023-04-20T13:44:24.774Z,1999.90
2023-04-20T13:46:52.774Z,1999.90
2023-04-20T13:49:22.773Z,1999.90
2023-04-20T13:51:51.294Z,1999.90
2023-04-20T13:54:19.524Z,1999.90
2023-04-20T13:56:49.044Z,1999.90
2023-04-20T13:59:17.026Z,1999.90
2023-04-20T14:01:45.175Z,1999.90
2023-04-20T14:04:16.834Z,1999.90
2023-04-20T14:06:45.114Z,1999.90
2023-04-20T14:09:13.367Z,1999.90
2023-04-20T14:11:41.372Z,1999.90
2023-04-20T14:14:10.834Z,1999.90
2023-04-20T14:16:44.170Z,1999.90
2023-04-20T14:19:12.310Z,1999.90
2023-04-20T14:21:41.180Z,1999.90
2023-04-20T14:24:09.499Z,1999.90
2023-04-20T14:26:37.473Z,1999.90
2023-04-20T14:29:05.810Z,1999.90
2023-04-20T14:31:35.746Z,1999.90
2023-04-20T14:34:03.785Z,1999.90
2023-04-20T14:36:32.424Z,1999.90
2023-04-20T14:39:00.392Z,1999.90
2023-04-20T14:41:28.378Z,1999.90
2023-04-20T14:43:56.372Z,1999.90
2023-04-20T14:46:24.436Z,1999.90
2023-04-20T14:48:53.816Z,1999.90
2023-04-20T14:51:21.797Z,1999.90
2023-04-20T14:53:49.921Z,1999.90
2023-04-20T14:56:17.899Z,1999.90
2023-04-20T14:58:47.938Z,1999.90
2023-04-20T15:01:15.983Z,1999.90
2023-04-20T15:03:44.464Z,1999.90
2023-04-20T15:06:13.967Z,1999.90
2023-04-20T15:08:42.426Z,1999.90
2023-04-20T15:11:10.420Z,1999.90
2023-04-20T15:13:41.057Z,1999.90
2023-04-20T15:16:09.694Z,1999.90
2023-04-20T15:18:37.760Z,1999.90
2023-04-20T15:21:08.323Z,1999.90
2023-04-20T15:23:38.142Z,1999.90
2023-04-20T15:26:07.759Z,1999.90
2023-04-20T15:28:35.724Z,1263.03
2023-04-20T15:31:03.722Z,1989.93
2023-04-20T15:33:31.673Z,1999.90
2023-04-20T15:35:59.726Z,1999.90
2023-04-20T15:38:27.664Z,656.97
2023-04-20T15:40:57.005Z,1999.90
2023-04-20T15:43:25.060Z,1999.90
2023-04-20T15:45:53.086Z,1999.90
2023-04-20T15:48:21.040Z,1999.90
2023-04-20T15:50:52.450Z,665.00
2023-04-20T15:53:21.574Z,1999.90
2023-04-20T15:55:49.597Z,1999.90
2023-04-20T15:58:18.977Z,1999.90
2023-04-20T16:00:47.026Z,1999.90
2023-04-20T16:03:15.245Z,1999.90
2023-04-20T16:05:43.354Z,1999.90
2023-04-20T16:08:13.062Z,1999.90
2023-04-20T16:10:41.085Z,1999.90
2023-04-20T16:13:09.041Z,1999.90
2023-04-20T16:15:39.723Z,1875.83
2023-04-20T16:18:07.800Z,1999.90
2023-04-20T16:20:35.930Z,1999.90
2023-04-20T16:23:03.884Z,1417.50
2023-04-20T16:25:34.039Z,1999.90
2023-04-20T16:28:02.012Z,1999.90
2023-04-20T16:30:29.977Z,1709.53
2023-04-20T16:32:59.799Z,1999.90
2023-04-20T16:35:28.098Z,1999.90
2023-04-20T16:37:56.800Z,1999.90
2023-04-20T16:40:26.170Z,1968.03
2023-04-20T16:42:54.142Z,1999.90
2023-04-20T16:45:22.111Z,1999.90
2023-04-20T16:47:51.356Z,861.83
2023-04-20T16:50:20.802Z,1321.20
2023-04-20T16:52:49.115Z,855.67
2023-04-20T16:55:17.223Z,1953.77
2023-04-20T16:57:45.181Z,1999.90
2023-04-20T17:00:14.791Z,1999.90
2023-04-20T17:02:43.014Z,1999.90
2023-04-20T17:05:11.897Z,1305.17
2023-04-20T17:07:41.201Z,1999.90
2023-04-20T17:10:09.683Z,1999.90
2023-04-20T17:12:39.212Z,1999.90
2023-04-20T17:15:09.817Z,1999.90
2023-04-20T17:17:37.841Z,1999.90
2023-04-20T17:20:07.505Z,699.87
2023-04-20T17:22:36.451Z,1999.90
2023-04-20T17:25:08.021Z,774.60
2023-04-20T17:27:36.198Z,1441.27
2023-04-20T17:30:04.640Z,1900.37
2023-04-20T17:32:33.409Z,1582.23
2023-04-20T17:35:01.477Z,1571.20
2023-04-20T17:37:29.455Z,1956.53
2023-04-20T17:39:57.437Z,1999.90
2023-04-20T17:42:26.771Z,1999.90
2023-04-20T17:44:54.735Z,795.97
2023-04-20T17:47:22.702Z,1999.90
2023-04-20T17:49:50.952Z,1999.90
2023-04-20T17:52:19.680Z,1999.90
2023-04-20T17:54:47.907Z,1999.90
2023-04-20T17:57:15.840Z,1999.90
2023-04-20T17:59:45.163Z,1999.90
2023-04-20T18:02:14.157Z,1999.90
2023-04-20T18:04:42.454Z,1999.90
2023-04-20T18:07:13.129Z,1830.20
2023-04-20T18:09:41.323Z,1246.00
2023-04-20T18:12:10.748Z,1999.90
2023-04-20T18:14:38.751Z,1999.90
2023-04-20T18:17:08.189Z,1999.90
2023-04-20T18:19:36.204Z,1999.90
2023-04-20T18:22:04.465Z,1861.13
2023-04-20T18:24:32.407Z,1999.90
2023-04-20T18:27:01.281Z,1999.90
2023-04-20T18:29:29.869Z,1999.90
2023-04-20T18:31:59.412Z,1999.90
2023-04-20T18:34:30.991Z,1235.37
2023-04-20T18:36:59.880Z,1999.90
2023-04-20T18:39:27.893Z,1999.90
2023-04-20T18:41:55.866Z,1999.90
2023-04-20T18:44:23.888Z,1999.90
2023-04-20T18:46:51.977Z,1999.90
2023-04-20T18:49:19.988Z,1999.90
2023-04-20T18:51:49.355Z,1999.90
2023-04-20T18:54:17.502Z,1999.90
2023-04-20T18:56:45.686Z,1999.90
2023-04-20T18:59:13.625Z,1677.57
2023-04-20T19:01:41.641Z,1999.90
2023-04-20T19:04:10.132Z,1103.97
2023-04-20T19:06:38.217Z,1999.90
2023-04-20T19:09:08.357Z,1999.90
2023-04-20T19:11:36.665Z,1999.90
2023-04-20T19:14:04.710Z,1999.90
2023-04-20T19:16:33.531Z,1999.90
2023-04-20T19:19:02.925Z,1999.90
2023-04-20T19:21:32.051Z,1999.90
2023-04-20T19:24:00.033Z,1999.90
2023-04-20T19:26:29.386Z,1762.07
2023-04-20T19:28:58.194Z,1277.10
2023-04-20T19:31:26.460Z,1999.90
2023-04-20T19:33:56.550Z,1999.90
2023-04-20T19:36:25.139Z,1999.90
2023-04-20T19:38:53.070Z,1999.90
2023-04-20T19:41:21.513Z,1999.90
2023-04-20T19:43:51.121Z,1999.90
2023-04-20T19:46:19.378Z,1999.90
2023-04-20T19:48:47.485Z,1331.53
2023-04-20T19:51:15.500Z,1999.90
2023-04-20T19:53:43.572Z,1999.90
2023-04-20T19:56:11.628Z,1999.90
2023-04-20T19:58:39.672Z,1974.83
2023-04-20T20:01:09.216Z,1184.67
2023-04-20T20:03:37.837Z,1999.90
2023-04-20T20:06:06.806Z,1999.90
2023-04-20T20:08:34.803Z,1999.90
2023-04-20T20:11:03.238Z,1172.03
2023-04-20T20:13:31.881Z,1812.63
2023-04-20T20:16:00.411Z,1724.10
2023-04-20T20:18:29.864Z,372.50
2023-04-20T20:20:57.863Z,858.27
2023-04-20T20:23:26.023Z,1999.90
2023-04-20T20:25:54.482Z,1999.90
2023-04-20T20:28:22.456Z,1999.90
2023-04-20T20:30:50.526Z,1999.90
2023-04-20T20:33:19.656Z,1175.43
2023-04-20T20:35:49.079Z,1999.90
2023-04-20T20:38:17.917Z,1999.90
2023-04-20T20:40:45.945Z,1999.90
2023-04-20T20:43:14.099Z,1990.17
2023-04-20T20:45:42.449Z,1999.90
2023-04-20T20:48:10.468Z,1999.90
2023-04-20T20:50:38.465Z,1999.90
2023-04-20T20:53:08.961Z,1999.90
2023-04-20T20:55:37.008Z,1999.90
2023-04-20T20:58:05.024Z,1999.90
2023-04-20T21:00:33.468Z,1999.90
2023-04-20T21:03:02.148Z,1999.90
2023-04-20T21:05:32.617Z,1999.90
2023-04-20T21:08:02.528Z,1999.90
2023-04-20T21:10:34.914Z,1887.57
2023-04-20T21:13:04.113Z,1999.90
2023-04-20T21:15:32.092Z,1999.90
2023-04-20T21:18:00.130Z,1999.90
2023-04-20T21:20:28.104Z,1999.90
2023-04-20T21:22:56.067Z,1999.90
2023-04-20T21:25:24.252Z,1999.90
2023-04-20T21:27:53.574Z,1999.90
2023-04-20T21:30:21.602Z,1999.90
2023-04-20T21:32:49.614Z,1999.90
2023-04-20T21:35:17.563Z,1999.90
2023-04-20T21:37:45.628Z,1999.90
2023-04-20T21:40:13.910Z,1999.90
2023-04-20T21:42:41.901Z,1999.90
2023-04-20T21:45:12.298Z,1999.90
2023-04-20T21:47:40.271Z,1999.90
2023-04-20T21:50:08.593Z,1999.90
2023-04-20T21:52:36.591Z,1999.90
2023-04-20T21:55:04.680Z,1999.90
2023-04-20T21:57:32.642Z,1999.90
2023-04-20T22:00:00.577Z,1999.90
2023-04-20T22:02:30.077Z,1999.90
2023-04-20T22:04:58.084Z,1999.90
2023-04-20T22:07:27.584Z,1999.90
2023-04-20T22:09:55.536Z,1999.90
2023-04-20T22:12:38.393Z,1999.90
2023-04-20T22:15:10.268Z,1999.90
2023-04-20T22:17:40.038Z,1999.90
2023-04-20T22:20:10.562Z,1999.90
2023-04-20T22:22:39.356Z,1999.90
2023-04-20T22:25:09.047Z,1999.90
2023-04-20T22:27:38.034Z,1999.90
2023-04-20T22:30:09.352Z,1999.90
2023-04-20T22:32:39.184Z,1999.90
2023-04-20T22:35:07.770Z,1999.90
2023-04-20T22:37:35.935Z,1999.90
2023-04-20T22:40:05.939Z,1999.90
2023-04-20T22:42:34.780Z,1999.90
2023-04-20T22:45:02.784Z,1999.90
2023-04-20T22:47:30.894Z,1999.90
2023-04-20T22:50:00.352Z,1999.90
2023-04-20T22:52:28.346Z,1999.90
2023-04-20T22:54:56.350Z,1999.90
2023-04-20T22:57:24.430Z,1999.90
2023-04-20T22:59:52.407Z,1999.90
2023-04-20T23:02:20.614Z,1999.90
2023-04-20T23:04:48.700Z,1999.90
2023-04-20T23:07:19.543Z,1999.90
2023-04-20T23:09:48.117Z,1999.90
2023-04-20T23:12:16.464Z,1999.90
2023-04-20T23:14:44.471Z,1999.90
2023-04-20T23:17:12.486Z,1999.90
2023-04-20T23:19:41.133Z,1999.90
2023-04-20T23:22:09.726Z,1999.90
2023-04-20T23:24:39.193Z,1999.90
2023-04-20T23:27:07.172Z,1999.90
2023-04-20T23:29:35.141Z,1999.90
2023-04-20T23:32:03.249Z,1588.43
2023-04-20T23:34:31.574Z,1999.90
2023-04-20T23:36:59.743Z,1999.90
2023-04-20T23:39:27.869Z,1999.90
2023-04-20T23:41:57.860Z,1999.90
2023-04-20T23:44:25.912Z,1999.90
2023-04-20T23:46:53.920Z,1999.90
2023-04-20T23:49:21.890Z,1659.73
2023-04-20T23:51:49.882Z,1999.90
2023-04-20T23:54:17.896Z,1559.63
2023-04-20T23:56:45.895Z,1999.90
2023-04-20T23:59:15.228Z,1999.90
